| time (UTC) | temp F | wind direction | speed knots | gust knots | rain 1hr in | rain 24hr in | rain mn in | humidity % | barometer mb |
| 20260507060811 | 56 | 319 | 0.0 | 3.5 | 0.07 | 0.21 | 0.10 | 91 | 1010.3 |
| 20260507055701 | 56 | 355 | 0.0 | 0.0 | 0.10 | 0.21 | 0.10 | 91 | 1010.0 |
| 20260507055159 | 56 | 355 | 0.0 | 0.0 | 0.09 | 0.20 | 0.10 | 91 | 1009.9 |
| 20260507054700 | 56 | 355 | 0.0 | 0.0 | 0.09 | 0.20 | 0.09 | 91 | 1009.7 |
| 20260507054200 | 56 | 355 | 0.0 | 0.0 | 0.09 | 0.20 | 0.09 | 90 | 1010.1 |
| 20260507053700 | 56 | 355 | 0.0 | 0.0 | 0.09 | 0.20 | 0.09 | 90 | 1010.1 |
| 20260507053153 | 56 | 355 | 0.0 | 0.9 | 0.08 | 0.19 | 0.08 | 90 | 1010.1 |
| 20260507052921 | 57 | 355 | 0.0 | 0.9 | 0.08 | 0.19 | 0.08 | 89 | 1009.9 |
| 20260507052152 | 57 | 339 | 1.7 | 6.1 | 0.07 | 0.18 | 0.07 | 89 | 1009.9 |
| 20260507051652 | 57 | 263 | 3.5 | 11.3 | 0.06 | 0.17 | 0.06 | 88 | 1010.0 |
| 20260507051150 | 58 | 250 | 2.6 | 11.3 | 0.04 | 0.15 | 0.04 | 86 | 1010.2 |
| 20260507050650 | 59 | 327 | 1.7 | 11.3 | 0.02 | 0.13 | 0.03 | 83 | 1010.0 |
| 20260507050150 | 60 | 355 | 1.7 | 8.7 | 0.01 | 0.12 | 0.01 | 82 | 1010.1 |
| 20260507045917 | 60 | 298 | 1.7 | 5.2 | 0.00 | 0.11 | 0.00 | 80 | 1009.4 |
| 20260507045146 | 60 | 70 | 1.7 | 7.8 | 0.00 | 0.11 | 0.00 | 80 | 1009.4 |
| 20260507044647 | 60 | 298 | 1.7 | 7.8 | 0.00 | 0.11 | 0.00 | 80 | 1009.5 |
| 20260507044146 | 60 | 328 | 2.6 | 7.8 | 0.00 | 0.11 | 0.00 | 80 | 1009.6 |
| 20260507043644 | 61 | 326 | 2.6 | 8.7 | 0.00 | 0.11 | 0.00 | 80 | 1009.3 |
| 20260507043415 | 61 | 283 | 1.7 | 8.7 | 0.00 | 0.11 | 0.00 | 80 | 1009.3 |
| 20260507042642 | 61 | 320 | 0.9 | 7.0 | 0.00 | 0.11 | 0.00 | 80 | 1009.2 |
| 20260507042411 | 61 | 355 | 1.7 | 8.7 | 0.00 | 0.11 | 0.00 | 80 | 1009.2 |
| 20260507041640 | 61 | 333 | 0.9 | 8.7 | 0.00 | 0.11 | 0.00 | 80 | 1009.2 |
| 20260507041141 | 62 | 5 | 0.9 | 7.0 | 0.00 | 0.11 | 0.00 | 80 | 1009.1 |
| 20260507040638 | 62 | 0 | 0.0 | 5.2 | 0.00 | 0.11 | 0.00 | 80 | 1008.9 |
| 20260507040411 | 62 | 319 | 0.9 | 5.2 | 0.00 | 0.11 | 0.00 | 80 | 1009.0 |
| 20260507035637 | 62 | 63 | 0.9 | 7.8 | 0.00 | 0.11 | 0.11 | 79 | 1009.0 |
| 20260507035135 | 63 | 311 | 0.9 | 7.8 | 0.00 | 0.11 | 0.11 | 78 | 1009.1 |
| 20260507034633 | 63 | 48 | 0.9 | 7.8 | 0.00 | 0.11 | 0.11 | 78 | 1009.1 |
| 20260507034134 | 63 | 325 | 0.9 | 7.8 | 0.00 | 0.11 | 0.11 | 78 | 1009.3 |
| 20260507033633 | 63 | 336 | 0.9 | 7.8 | 0.00 | 0.11 | 0.11 | 78 | 1008.9 |
| 20260507033403 | 64 | 40 | 1.7 | 8.7 | 0.00 | 0.11 | 0.11 | 77 | 1009.0 |
| 20260507032628 | 64 | 284 | 1.7 | 8.7 | 0.00 | 0.11 | 0.11 | 77 | 1008.9 |
| 20260507032128 | 64 | 355 | 1.7 | 11.3 | 0.00 | 0.11 | 0.11 | 77 | 1008.9 |
| 20260507031631 | 64 | 311 | 1.7 | 11.3 | 0.00 | 0.11 | 0.11 | 76 | 1008.9 |
| 20260507031129 | 64 | 0 | 2.6 | 9.6 | 0.00 | 0.11 | 0.11 | 77 | 1008.7 |
| 20260507030627 | 65 | 323 | 4.3 | 12.2 | 0.00 | 0.11 | 0.11 | 77 | 1008.6 |
| 20260507030127 | 65 | 351 | 3.5 | 12.2 | 0.00 | 0.11 | 0.11 | 80 | 1008.7 |
| 20260507025855 | 65 | 290 | 1.7 | 9.6 | 0.00 | 0.11 | 0.11 | 82 | 1008.3 |
| 20260507025400 | 65 | 5 | 0.0 | 4.3 | 0.00 | 0.11 | 0.11 | 83 | 1008.2 |
| 20260507025125 | 65 | 51 | 0.0 | 4.3 | 0.00 | 0.11 | 0.11 | 82 | 1008.3 |
| 20260507024124 | 65 | 277 | 0.0 | 5.2 | 0.00 | 0.11 | 0.11 | 83 | 1008.4 |
| 20260507023854 | 65 | 276 | 0.0 | 5.2 | 0.00 | 0.11 | 0.11 | 83 | 1008.2 |
| 20260507023124 | 65 | 325 | 0.9 | 5.2 | 0.00 | 0.11 | 0.11 | 83 | 1008.3 |
| 20260507022622 | 65 | 319 | 0.9 | 11.3 | 0.00 | 0.11 | 0.11 | 87 | 1008.3 |
| 20260507022617 | 65 | 263 | 1.7 | 11.3 | 0.00 | 0.11 | 0.11 | 85 | 1008.2 |
| 20260507021852 | 65 | 42 | 0.0 | 0.0 | 0.00 | 0.11 | 0.11 | 88 | 1008.1 |
| 20260507021616 | 65 | 314 | 0.0 | 0.0 | 0.00 | 0.11 | 0.11 | 88 | 1008.1 |
| 20260507020846 | 65 | 298 | 0.0 | 0.0 | 0.00 | 0.11 | 0.11 | 88 | 1008.1 |
| 20260507020117 | 65 | 298 | 0.0 | 0.0 | 0.00 | 0.11 | 0.11 | 88 | 1008.1 |
| 20260507015609 | 65 | 298 | 0.0 | 0.0 | 0.00 | 0.11 | 0.11 | 88 | 1008.3 |
| 20260507015107 | 65 | 298 | 0.0 | 0.0 | 0.00 | 0.11 | 0.11 | 88 | 1008.3 |
| 20260507014605 | 65 | 298 | 0.0 | 0.0 | 0.00 | 0.11 | 0.11 | 88 | 1008.4 |
| 20260507014102 | 65 | 298 | 0.0 | 0.0 | 0.00 | 0.11 | 0.11 | 87 | 1008.3 |
| 20260507013602 | 65 | 298 | 0.0 | 0.0 | 0.00 | 0.11 | 0.11 | 87 | 1008.5 |
| 20260507013101 | 65 | 158 | 0.0 | 0.0 | 0.00 | 0.11 | 0.11 | 87 | 1008.3 |
| 20260507012558 | 65 | 158 | 0.0 | 0.0 | 0.00 | 0.11 | 0.11 | 87 | 1008.3 |
| 20260507012057 | 65 | 158 | 0.0 | 0.0 | 0.00 | 0.11 | 0.11 | 86 | 1008.2 |
| 20260507011557 | 65 | 158 | 0.0 | 6.1 | 0.00 | 0.11 | 0.11 | 86 | 1008.2 |
| 20260507011055 | 65 | 158 | 0.0 | 6.1 | 0.00 | 0.11 | 0.11 | 86 | 1008.1 |
| 20260507010555 | 65 | 175 | 0.0 | 0.0 | 0.00 | 0.11 | 0.11 | 86 | 1008.2 |
| 20260507010048 | 65 | 175 | 0.0 | 2.6 | 0.00 | 0.11 | 0.11 | 86 | 1008.0 |
| 20260507005546 | 65 | 175 | 0.0 | 3.5 | 0.00 | 0.11 | 0.11 | 86 | 1008.1 |
| 20260507005045 | 65 | 175 | 0.0 | 3.5 | 0.00 | 0.11 | 0.11 | 86 | 1008.1 |
| 20260507004544 | 65 | 173 | 0.0 | 4.3 | 0.00 | 0.11 | 0.11 | 86 | 1007.9 |
| 20260507004043 | 65 | 173 | 0.0 | 4.3 | 0.00 | 0.11 | 0.11 | 86 | 1007.9 |
| 20260507003536 | 65 | 173 | 0.0 | 1.7 | 0.00 | 0.11 | 0.11 | 85 | 1007.8 |
| 20260507003033 | 65 | 173 | 0.0 | 1.7 | 0.00 | 0.11 | 0.11 | 85 | 1007.7 |
| 20260507002534 | 65 | 159 | 0.0 | 1.7 | 0.00 | 0.11 | 0.11 | 85 | 1007.7 |
| 20260507002033 | 65 | 159 | 0.0 | 1.7 | 0.00 | 0.11 | 0.11 | 85 | 1007.7 |
| 20260507001534 | 65 | 159 | 0.0 | 4.3 | 0.00 | 0.11 | 0.11 | 85 | 1007.8 |
| 20260507001034 | 65 | 159 | 0.0 | 4.3 | 0.00 | 0.11 | 0.11 | 85 | 1007.9 |
| 20260507000535 | 66 | 159 | 0.0 | 0.0 | 0.00 | 0.11 | 0.11 | 85 | 1007.8 |
| 20260507000032 | 66 | 159 | 0.0 | 3.5 | 0.00 | 0.11 | 0.11 | 84 | 1007.7 |
| 20260506235532 | 66 | 159 | 0.0 | 3.5 | 0.00 | 0.11 | 0.11 | 84 | 1007.5 |
| 20260506235032 | 66 | 159 | 0.0 | 4.3 | 0.00 | 0.11 | 0.11 | 84 | 1007.5 |
| 20260506234531 | 66 | 159 | 0.0 | 4.3 | 0.00 | 0.11 | 0.11 | 84 | 1007.3 |
| 20260506234026 | 66 | 173 | 0.0 | 0.0 | 0.00 | 0.11 | 0.11 | 84 | 1007.2 |
| 20260506233526 | 66 | 173 | 0.0 | 1.7 | 0.00 | 0.11 | 0.11 | 84 | 1007.2 |
| 20260506233025 | 66 | 173 | 0.0 | 1.7 | 0.00 | 0.11 | 0.11 | 83 | 1007.3 |
| 20260506232528 | 67 | 173 | 0.0 | 1.7 | 0.00 | 0.11 | 0.11 | 83 | 1007.3 |
| 20260506232030 | 67 | 173 | 0.0 | 0.0 | 0.00 | 0.11 | 0.11 | 83 | 1007.3 |
| 20260506231801 | 67 | 173 | 0.0 | 0.0 | 0.00 | 0.11 | 0.11 | 83 | 1007.3 |
| 20260506231024 | 67 | 173 | 0.0 | 0.9 | 0.00 | 0.11 | 0.11 | 83 | 1007.2 |
| 20260506230522 | 67 | 173 | 0.0 | 0.9 | 0.00 | 0.11 | 0.11 | 83 | 1007.3 |
| 20260506230022 | 67 | 167 | 0.0 | 4.3 | 0.00 | 0.11 | 0.11 | 83 | 1007.2 |
| 20260506225521 | 67 | 167 | 0.0 | 4.3 | 0.00 | 0.11 | 0.11 | 82 | 1007.2 |
| 20260506225022 | 67 | 178 | 0.0 | 3.5 | 0.00 | 0.11 | 0.11 | 82 | 1007.3 |
| 20260506224524 | 67 | 189 | 0.0 | 3.5 | 0.00 | 0.11 | 0.11 | 82 | 1007.4 |
| 20260506224018 | 67 | 204 | 0.0 | 2.6 | 0.00 | 0.11 | 0.11 | 82 | 1007.3 |
| 20260506223518 | 67 | 158 | 0.0 | 3.5 | 0.00 | 0.11 | 0.11 | 82 | 1007.2 |
| 20260506223017 | 68 | 169 | 0.0 | 3.5 | 0.00 | 0.11 | 0.11 | 81 | 1007.2 |
| 20260506222521 | 68 | 179 | 0.0 | 5.2 | 0.00 | 0.11 | 0.11 | 81 | 1007.2 |
| 20260506222017 | 68 | 177 | 0.0 | 5.2 | 0.00 | 0.11 | 0.11 | 81 | 1007.2 |
| 20260506221750 | 68 | 159 | 0.0 | 2.6 | 0.00 | 0.11 | 0.11 | 81 | 1007.2 |
| 20260506221019 | 68 | 147 | 0.0 | 4.3 | 0.00 | 0.11 | 0.11 | 80 | 1007.2 |
| 20260506220518 | 68 | 246 | 0.0 | 4.3 | 0.00 | 0.11 | 0.11 | 80 | 1007.3 |
| 20260506220016 | 68 | 169 | 0.9 | 3.5 | 0.00 | 0.11 | 0.11 | 80 | 1007.3 |
| 20260506215746 | 68 | 169 | 0.9 | 5.2 | 0.00 | 0.11 | 0.11 | 81 | 1007.2 |
| 20260506215015 | 68 | 169 | 0.0 | 5.2 | 0.00 | 0.11 | 0.11 | 81 | 1006.9 |
| 20260506214514 | 68 | 166 | 0.0 | 2.6 | 0.00 | 0.11 | 0.11 | 81 | 1007.0 |
| 20260506214012 | 67 | 166 | 0.0 | 4.3 | 0.00 | 0.11 | 0.11 | 81 | 1007.0 |
| 20260506213514 | 67 | 166 | 0.0 | 6.1 | 0.00 | 0.11 | 0.11 | 81 | 1007.0 |
| 20260506213009 | 67 | 175 | 0.9 | 6.1 | 0.00 | 0.11 | 0.11 | 81 | 1007.0 |
| 20260506212742 | 67 | 147 | 0.9 | 6.1 | 0.00 | 0.11 | 0.11 | 81 | 1006.9 |
| 20260506212011 | 67 | 155 | 0.0 | 6.1 | 0.00 | 0.11 | 0.11 | 81 | 1007.0 |
| 20260506211509 | 67 | 171 | 0.0 | 3.5 | 0.00 | 0.11 | 0.11 | 81 | 1006.9 |
| 20260506211006 | 67 | 172 | 0.0 | 3.5 | 0.00 | 0.11 | 0.11 | 80 | 1006.9 |
| 20260506210505 | 67 | 175 | 0.9 | 5.2 | 0.00 | 0.11 | 0.11 | 81 | 1006.9 |
| 20260506210232 | 67 | 173 | 0.9 | 5.2 | 0.00 | 0.11 | 0.11 | 81 | 1006.9 |
| 20260506205459 | 67 | 161 | 0.0 | 4.3 | 0.00 | 0.11 | 0.11 | 81 | 1006.9 |
| 20260506204956 | 67 | 203 | 0.0 | 3.5 | 0.00 | 0.11 | 0.11 | 81 | 1006.9 |
| 20260506204454 | 67 | 194 | 0.0 | 3.5 | 0.00 | 0.11 | 0.11 | 80 | 1007.0 |
| 20260506203954 | 68 | 213 | 0.0 | 2.6 | 0.00 | 0.11 | 0.11 | 80 | 1007.0 |
| 20260506203450 | 68 | 195 | 0.9 | 5.2 | 0.00 | 0.11 | 0.11 | 79 | 1006.9 |
| 20260506202949 | 68 | 194 | 0.9 | 5.2 | 0.00 | 0.11 | 0.11 | 78 | 1006.8 |
| 20260506202720 | 69 | 212 | 0.0 | 3.5 | 0.00 | 0.11 | 0.11 | 78 | 1006.8 |
| 20260506201950 | 69 | 230 | 0.0 | 2.6 | 0.00 | 0.11 | 0.11 | 78 | 1006.7 |
| 20260506201448 | 69 | 254 | 0.0 | 2.6 | 0.00 | 0.11 | 0.11 | 78 | 1006.7 |
| 20260506200947 | 69 | 182 | 0.0 | 1.7 | 0.00 | 0.11 | 0.11 | 78 | 1006.8 |
| 20260506200717 | 69 | 193 | 0.0 | 3.5 | 0.00 | 0.11 | 0.11 | 78 | 1006.8 |
| 20260506195941 | 69 | 161 | 0.9 | 7.0 | 0.00 | 0.11 | 0.11 | 76 | 1006.9 |
| 20260506195442 | 69 | 168 | 0.9 | 7.0 | 0.00 | 0.11 | 0.11 | 76 | 1006.8 |
| 20260506194943 | 69 | 207 | 0.9 | 7.8 | 0.00 | 0.11 | 0.11 | 76 | 1006.8 |
| 20260506194442 | 69 | 173 | 1.7 | 7.8 | 0.00 | 0.11 | 0.11 | 77 | 1006.7 |
| 20260506193940 | 69 | 241 | 2.6 | 9.6 | 0.00 | 0.11 | 0.11 | 76 | 1006.8 |
| 20260506193445 | 69 | 240 | 2.6 | 9.6 | 0.00 | 0.11 | 0.11 | 77 | 1006.8 |
| 20260506192940 | 69 | 223 | 1.7 | 9.6 | 0.00 | 0.11 | 0.11 | 77 | 1007.0 |
| 20260506192437 | 69 | 168 | 0.9 | 5.2 | 0.00 | 0.11 | 0.11 | 78 | 1007.1 |
| 20260506191937 | 68 | 196 | 0.9 | 6.1 | 0.00 | 0.11 | 0.11 | 78 | 1007.1 |
| 20260506191707 | 67 | 236 | 0.9 | 7.8 | 0.00 | 0.11 | 0.11 | 79 | 1007.2 |
| 20260506190934 | 67 | 193 | 0.9 | 7.8 | 0.00 | 0.11 | 0.11 | 80 | 1007.4 |
| 20260506190433 | 67 | 174 | 0.9 | 6.1 | 0.00 | 0.11 | 0.11 | 80 | 1007.5 |
| 20260506185932 | 67 | 186 | 0.9 | 6.1 | 0.00 | 0.11 | 0.11 | 80 | 1007.5 |
| 20260506185430 | 67 | 203 | 0.9 | 6.1 | 0.00 | 0.11 | 0.11 | 81 | 1007.5 |
| 20260506184930 | 66 | 205 | 0.0 | 6.1 | 0.00 | 0.11 | 0.11 | 82 | 1007.6 |
| 20260506184430 | 66 | 226 | 0.9 | 6.1 | 0.00 | 0.11 | 0.11 | 82 | 1007.5 |
| 20260506183928 | 66 | 138 | 0.9 | 6.1 | 0.00 | 0.11 | 0.11 | 82 | 1007.5 |
| 20260506183700 | 66 | 223 | 0.0 | 2.6 | 0.00 | 0.11 | 0.11 | 82 | 1007.5 |
| 20260506182924 | 66 | 186 | 0.9 | 6.1 | 0.00 | 0.11 | 0.11 | 83 | 1007.5 |
| 20260506182425 | 66 | 159 | 0.9 | 10.4 | 0.00 | 0.11 | 0.11 | 83 | 1007.6 |
| 20260506181924 | 66 | 186 | 1.7 | 10.4 | 0.00 | 0.11 | 0.11 | 83 | 1007.7 |
| 20260506181424 | 65 | 221 | 0.9 | 7.0 | 0.00 | 0.11 | 0.11 | 84 | 1007.7 |
| 20260506180924 | 65 | 202 | 0.9 | 7.0 | 0.00 | 0.11 | 0.11 | 85 | 1007.9 |
| 20260506180424 | 65 | 249 | 0.9 | 6.1 | 0.00 | 0.11 | 0.11 | 86 | 1007.8 |
| 20260506175925 | 65 | 215 | 0.9 | 5.2 | 0.00 | 0.11 | 0.11 | 87 | 1007.7 |
| 20260506175424 | 64 | 190 | 0.9 | 7.0 | 0.00 | 0.11 | 0.11 | 86 | 1007.9 |
| 20260506174921 | 64 | 172 | 0.9 | 7.0 | 0.00 | 0.11 | 0.11 | 87 | 1007.9 |
| 20260506174420 | 64 | 142 | 0.9 | 6.1 | 0.00 | 0.11 | 0.11 | 88 | 1007.9 |
| 20260506173922 | 64 | 176 | 0.9 | 5.2 | 0.00 | 0.11 | 0.11 | 88 | 1008.0 |
| 20260506173422 | 63 | 164 | 0.9 | 6.1 | 0.00 | 0.11 | 0.11 | 89 | 1008.0 |
| 20260506172920 | 63 | 171 | 1.7 | 6.1 | 0.00 | 0.11 | 0.11 | 89 | 1007.9 |
| 20260506172420 | 63 | 252 | 1.7 | 7.0 | 0.00 | 0.11 | 0.11 | 89 | 1007.9 |
| 20260506171916 | 63 | 105 | 0.9 | 7.0 | 0.00 | 0.11 | 0.11 | 89 | 1008.0 |
| 20260506171416 | 62 | 196 | 0.9 | 5.2 | 0.00 | 0.11 | 0.11 | 89 | 1008.0 |
| 20260506170917 | 62 | 200 | 0.9 | 5.2 | 0.00 | 0.11 | 0.11 | 89 | 1008.0 |
| 20260506170417 | 62 | 175 | 1.7 | 7.0 | 0.00 | 0.11 | 0.11 | 89 | 1008.1 |
| 20260506165918 | 62 | 177 | 2.6 | 8.7 | 0.00 | 0.11 | 0.11 | 90 | 1008.2 |
| 20260506165416 | 62 | 194 | 1.7 | 8.7 | 0.00 | 0.11 | 0.11 | 90 | 1008.4 |
| 20260506164918 | 62 | 179 | 0.9 | 7.8 | 0.00 | 0.11 | 0.11 | 90 | 1008.2 |
| 20260506164411 | 62 | 162 | 0.9 | 6.1 | 0.00 | 0.11 | 0.11 | 90 | 1008.3 |
| 20260506163911 | 62 | 200 | 0.9 | 6.1 | 0.00 | 0.11 | 0.11 | 90 | 1008.4 |
| 20260506163412 | 62 | 221 | 1.7 | 7.0 | 0.00 | 0.11 | 0.11 | 90 | 1008.3 |
| 20260506162911 | 62 | 132 | 2.6 | 7.8 | 0.00 | 0.11 | 0.11 | 90 | 1008.3 |
| 20260506162410 | 62 | 178 | 2.6 | 7.8 | 0.01 | 0.11 | 0.11 | 89 | 1008.4 |
| 20260506162147 | 62 | 188 | 2.6 | 8.7 | 0.02 | 0.11 | 0.11 | 90 | 1008.5 |
| 20260506161909 | 62 | 167 | 2.6 | 7.0 | 0.02 | 0.11 | 0.11 | 89 | 1008.4 |
| 20260506160908 | 62 | 185 | 1.7 | 8.7 | 0.03 | 0.11 | 0.11 | 90 | 1008.5 |
| 20260506160639 | 62 | 165 | 0.9 | 6.1 | 0.04 | 0.11 | 0.11 | 90 | 1008.6 |
| 20260506155905 | 62 | 168 | 1.7 | 7.0 | 0.05 | 0.11 | 0.11 | 91 | 1008.8 |
| 20260506155404 | 62 | 151 | 1.7 | 7.0 | 0.05 | 0.11 | 0.11 | 90 | 1008.5 |
| 20260506154904 | 62 | 163 | 1.7 | 7.0 | 0.05 | 0.11 | 0.11 | 91 | 1008.5 |
| 20260506154406 | 62 | 129 | 1.7 | 7.0 | 0.06 | 0.11 | 0.11 | 91 | 1008.7 |
| 20260506154137 | 61 | 162 | 0.9 | 5.2 | 0.06 | 0.11 | 0.11 | 91 | 1008.8 |
| 20260506153402 | 61 | 163 | 1.7 | 8.7 | 0.06 | 0.11 | 0.11 | 90 | 1009.1 |
| 20260506152857 | 61 | 179 | 2.6 | 8.7 | 0.06 | 0.11 | 0.11 | 90 | 1009.1 |
| 20260506152349 | 61 | 158 | 0.9 | 7.0 | 0.06 | 0.10 | 0.10 | 90 | 1009.3 |
| 20260506152116 | 61 | 177 | 0.9 | 9.6 | 0.05 | 0.09 | 0.09 | 89 | 1009.3 |
| 20260506151616 | 61 | 172 | 1.7 | 9.6 | 0.06 | 0.09 | 0.09 | 89 | 1009.3 |
| 20260506150844 | 61 | 233 | 0.9 | 7.0 | 0.06 | 0.08 | 0.08 | 89 | 1009.3 |
| 20260506150345 | 62 | 177 | 0.0 | 5.2 | 0.05 | 0.07 | 0.07 | 88 | 1009.4 |
| 20260506145844 | 62 | 171 | 0.0 | 5.2 | 0.04 | 0.06 | 0.06 | 88 | 1009.4 |
| 20260506145345 | 62 | 174 | 0.9 | 7.0 | 0.05 | 0.06 | 0.06 | 88 | 1009.3 |
| 20260506144840 | 62 | 169 | 0.9 | 7.0 | 0.05 | 0.06 | 0.06 | 88 | 1009.3 |
| 20260506144341 | 62 | 133 | 0.9 | 6.1 | 0.05 | 0.05 | 0.05 | 88 | 1009.2 |
| 20260506144113 | 62 | 170 | 0.0 | 6.1 | 0.05 | 0.05 | 0.05 | 88 | 1009.1 |
| 20260506143340 | 62 | 166 | 0.9 | 6.1 | 0.05 | 0.05 | 0.05 | 88 | 1009.2 |
| 20260506143120 | 62 | 150 | 0.9 | 6.1 | 0.05 | 0.05 | 0.05 | 88 | 1009.1 |
| 20260506142344 | 62 | 176 | 0.9 | 5.2 | 0.04 | 0.04 | 0.04 | 88 | 1009.2 |
| 20260506141840 | 62 | 151 | 1.7 | 6.1 | 0.04 | 0.04 | 0.04 | 87 | 1009.1 |
| 20260506141336 | 62 | 159 | 1.7 | 6.1 | 0.03 | 0.03 | 0.03 | 87 | 1009.5 |
| 20260506140836 | 62 | 202 | 1.7 | 8.7 | 0.02 | 0.02 | 0.03 | 86 | 1009.5 |
| 20260506140338 | 62 | 155 | 1.7 | 9.6 | 0.02 | 0.02 | 0.02 | 86 | 1009.6 |
| 20260506135837 | 62 | 163 | 1.7 | 9.6 | 0.02 | 0.02 | 0.02 | 85 | 1009.6 |
| 20260506135338 | 63 | 181 | 0.9 | 7.0 | 0.01 | 0.01 | 0.01 | 84 | 1009.7 |
| 20260506134839 | 63 | 170 | 1.7 | 7.8 | 0.01 | 0.01 | 0.01 | 84 | 1009.5 |
| 20260506134336 | 63 | 198 | 1.7 | 7.8 | 0.00 | 0.00 | 0.00 | 83 | 1009.3 |
| 20260506133837 | 63 | 161 | 1.7 | 9.6 | 0.00 | 0.00 | 0.00 | 82 | 1009.4 |
| 20260506133337 | 64 | 213 | 2.6 | 10.4 | 0.00 | 0.00 | 0.00 | 80 | 1009.5 |
| 20260506132836 | 64 | 221 | 1.7 | 10.4 | 0.00 | 0.00 | 0.00 | 80 | 1009.5 |
| 20260506132336 | 64 | 190 | 1.7 | 7.0 | 0.00 | 0.00 | 0.00 | 79 | 1009.4 |
| 20260506131837 | 64 | 157 | 1.7 | 7.0 | 0.00 | 0.00 | 0.00 | 79 | 1009.2 |
| 20260506131337 | 64 | 163 | 1.7 | 7.0 | 0.00 | 0.00 | 0.00 | 79 | 1009.1 |
| 20260506130836 | 64 | 195 | 1.7 | 7.0 | 0.00 | 0.00 | 0.00 | 80 | 1009.1 |
| 20260506130336 | 64 | 175 | 1.7 | 7.0 | 0.00 | 0.00 | 0.00 | 80 | 1009.1 |
| 20260506125834 | 64 | 188 | 1.7 | 8.7 | 0.00 | 0.00 | 0.00 | 81 | 1009.2 |
| 20260506125330 | 64 | 153 | 0.9 | 8.7 | 0.00 | 0.00 | 0.00 | 82 | 1009.2 |
| 20260506124832 | 64 | 144 | 0.9 | 5.2 | 0.00 | 0.00 | 0.00 | 83 | 1009.2 |
| 20260506124334 | 63 | 188 | 1.7 | 9.6 | 0.00 | 0.00 | 0.00 | 82 | 1009.4 |
| 20260506124330 | 63 | 107 | 1.7 | 9.6 | 0.00 | 0.00 | 0.00 | 82 | 1009.3 |
| 20260506123604 | 64 | 173 | 1.7 | 7.8 | 0.00 | 0.00 | 0.00 | 81 | 1009.5 |
| 20260506122831 | 64 | 182 | 1.7 | 8.7 | 0.00 | 0.00 | 0.00 | 80 | 1009.6 |
| 20260506122324 | 64 | 161 | 1.7 | 8.7 | 0.00 | 0.00 | 0.00 | 80 | 1009.6 |
| 20260506121824 | 64 | 188 | 1.7 | 9.6 | 0.00 | 0.00 | 0.00 | 80 | 1009.5 |
| 20260506121323 | 64 | 202 | 2.6 | 9.6 | 0.00 | 0.00 | 0.00 | 79 | 1009.6 |
| 20260506120821 | 64 | 194 | 2.6 | 11.3 | 0.00 | 0.00 | 0.00 | 79 | 1009.6 |
| 20260506120321 | 64 | 228 | 3.5 | 11.3 | 0.00 | 0.00 | 0.00 | 79 | 1009.4 |
| 20260506120053 | 64 | 148 | 2.6 | 9.6 | 0.00 | 0.00 | 0.00 | 80 | 1009.5 |
| 20260506115941 | 64 | 196 | 2.6 | 9.6 | 0.00 | 0.00 | 0.00 | 79 | 1009.4 |
| 20260506114816 | 64 | 169 | 3.5 | 9.6 | 0.00 | 0.00 | 0.00 | 79 | 1009.0 |
| 20260506114316 | 64 | 178 | 4.3 | 15.6 | 0.00 | 0.00 | 0.00 | 79 | 1009.2 |
| 20260506113817 | 64 | 166 | 3.5 | 15.6 | 0.00 | 0.00 | 0.00 | 80 | 1009.3 |
| 20260506113315 | 64 | 167 | 2.6 | 7.8 | 0.00 | 0.00 | 0.00 | 80 | 1009.2 |
| 20260506112816 | 64 | 170 | 2.6 | 12.2 | 0.00 | 0.00 | 0.00 | 80 | 1009.1 |
| 20260506112315 | 64 | 153 | 3.5 | 12.2 | 0.00 | 0.00 | 0.00 | 79 | 1009.1 |
| 20260506111808 | 64 | 167 | 3.5 | 11.3 | 0.00 | 0.00 | 0.00 | 80 | 1009.0 |
| 20260506111309 | 64 | 147 | 3.5 | 11.3 | 0.00 | 0.00 | 0.00 | 79 | 1008.9 |
| 20260506110809 | 64 | 142 | 3.5 | 10.4 | 0.00 | 0.00 | 0.00 | 79 | 1008.9 |
| 20260506110542 | 65 | 197 | 2.6 | 8.7 | 0.00 | 0.00 | 0.00 | 79 | 1008.9 |
| 20260506105809 | 64 | 142 | 2.6 | 8.7 | 0.00 | 0.00 | 0.00 | 80 | 1008.9 |
| 20260506105311 | 64 | 165 | 3.5 | 10.4 | 0.00 | 0.00 | 0.00 | 80 | 1008.8 |
| 20260506104804 | 64 | 137 | 3.5 | 10.4 | 0.00 | 0.00 | 0.00 | 80 | 1008.9 |
| 20260506104305 | 64 | 183 | 3.5 | 10.4 | 0.00 | 0.00 | 0.00 | 80 | 1008.8 |
| 20260506104035 | 64 | 174 | 3.5 | 10.4 | 0.00 | 0.00 | 0.00 | 80 | 1008.8 |
| 20260506103303 | 64 | 159 | 3.5 | 12.2 | 0.00 | 0.00 | 0.00 | 80 | 1008.7 |
| 20260506102803 | 64 | 158 | 3.5 | 12.2 | 0.00 | 0.00 | 0.00 | 80 | 1008.7 |
| 20260506102305 | 64 | 169 | 3.5 | 10.4 | 0.00 | 0.00 | 0.00 | 80 | 1008.7 |
| 20260506101758 | 64 | 160 | 2.6 | 12.2 | 0.00 | 0.00 | 0.00 | 80 | 1008.9 |
| 20260506101258 | 64 | 162 | 2.6 | 12.2 | 0.00 | 0.00 | 0.00 | 80 | 1008.7 |
| 20260506100800 | 64 | 126 | 2.6 | 14.8 | 0.00 | 0.00 | 0.00 | 80 | 1008.7 |
| 20260506100528 | 64 | 180 | 3.5 | 14.8 | 0.00 | 0.00 | 0.00 | 80 | 1008.7 |
| 20260506095757 | 64 | 200 | 3.5 | 10.4 | 0.00 | 0.00 | 0.00 | 80 | 1008.7 |
| 20260506095257 | 64 | 146 | 3.5 | 16.5 | 0.00 | 0.00 | 0.00 | 80 | 1008.8 |
| 20260506094753 | 64 | 172 | 3.5 | 16.5 | 0.00 | 0.00 | 0.00 | 80 | 1008.7 |
| 20260506094253 | 64 | 147 | 3.5 | 10.4 | 0.00 | 0.00 | 0.00 | 80 | 1008.9 |
| 20260506094022 | 64 | 171 | 3.5 | 10.4 | 0.00 | 0.00 | 0.00 | 80 | 1008.7 |
| 20260506093252 | 64 | 180 | 2.6 | 9.6 | 0.00 | 0.00 | 0.00 | 80 | 1008.7 |
| 20260506092751 | 64 | 157 | 2.6 | 8.7 | 0.00 | 0.00 | 0.00 | 79 | 1008.6 |
| 20260506092254 | 64 | 165 | 2.6 | 11.3 | 0.00 | 0.00 | 0.00 | 79 | 1008.6 |
| 20260506092021 | 64 | 182 | 2.6 | 11.3 | 0.00 | 0.00 | 0.00 | 79 | 1008.7 |
| 20260506091521 | 64 | 196 | 1.7 | 10.4 | 0.00 | 0.00 | 0.00 | 79 | 1008.8 |
| 20260506090745 | 64 | 198 | 1.7 | 10.4 | 0.00 | 0.00 | 0.00 | 79 | 1008.9 |
| 20260506090246 | 64 | 163 | 2.6 | 10.4 | 0.00 | 0.00 | 0.00 | 79 | 1008.9 |
| 20260506085745 | 65 | 186 | 2.6 | 10.4 | 0.00 | 0.00 | 0.00 | 79 | 1009.0 |
| 20260506085245 | 65 | 181 | 2.6 | 10.4 | 0.00 | 0.00 | 0.00 | 78 | 1008.9 |
| 20260506084741 | 65 | 171 | 2.6 | 8.7 | 0.00 | 0.00 | 0.00 | 78 | 1008.9 |
| 20260506084241 | 65 | 150 | 2.6 | 11.3 | 0.00 | 0.00 | 0.00 | 77 | 1008.9 |
| 20260506083741 | 65 | 156 | 3.5 | 15.6 | 0.00 | 0.00 | 0.00 | 77 | 1008.9 |
| 20260506083238 | 65 | 178 | 2.6 | 15.6 | 0.00 | 0.00 | 0.00 | 76 | 1008.8 |
| 20260506082740 | 65 | 180 | 3.5 | 11.3 | 0.00 | 0.00 | 0.00 | 76 | 1008.8 |
| 20260506082239 | 66 | 136 | 3.5 | 11.3 | 0.00 | 0.00 | 0.00 | 75 | 1008.7 |
| 20260506081731 | 66 | 217 | 3.5 | 9.6 | 0.00 | 0.00 | 0.00 | 75 | 1008.7 |
| 20260506081507 | 66 | 153 | 3.5 | 9.6 | 0.00 | 0.00 | 0.00 | 74 | 1008.7 |
| 20260506081005 | 66 | 165 | 3.5 | 8.7 | 0.00 | 0.00 | 0.00 | 74 | 1008.7 |
| 20260506080233 | 66 | 198 | 3.5 | 10.4 | 0.00 | 0.00 | 0.00 | 74 | 1008.8 |
| 20260506073227 | 67 | 170 | 3.5 | 13.0 | 0.00 | 0.00 | 0.00 | 74 | 1009.0 |
| 20260506072727 | 67 | 157 | 2.6 | 9.6 | 0.00 | 0.00 | 0.00 | 74 | 1009.0 |
| 20260506072458 | 67 | 281 | 2.6 | 13.9 | 0.00 | 0.00 | 0.00 | 74 | 1009.0 |
| 20260506071721 | 67 | 161 | 3.5 | 13.9 | 0.00 | 0.00 | 0.00 | 74 | 1009.0 |
| 20260506071457 | 67 | 169 | 2.6 | 10.4 | 0.00 | 0.00 | 0.00 | 74 | 1009.0 |
| 20260506070722 | 67 | 183 | 1.7 | 8.7 | 0.00 | 0.00 | 0.00 | 74 | 1009.1 |
| 20260506070455 | 67 | 195 | 2.6 | 10.4 | 0.00 | 0.00 | 0.00 | 74 | 1009.1 |
| 20260506062217 | 67 | 171 | 1.7 | 7.8 | 0.00 | 0.00 | 0.00 | 74 | 1009.3 |
| 20260506061718 | 67 | 228 | 1.7 | 7.8 | 0.00 | 0.00 | 0.00 | 74 | 1009.3 |
| 20260506061220 | 67 | 159 | 1.7 | 7.8 | 0.00 | 0.00 | 0.00 | 73 | 1009.3 |
| 20260506060950 | 67 | 148 | 1.7 | 7.0 | 0.00 | 0.00 | 0.00 | 73 | 1009.3 |